createdAt,value
2023-02-21T00:00:02.182Z,10.3
2023-02-21T00:01:01.997Z,10.3
2023-02-21T00:02:02.022Z,10.3
2023-02-21T00:03:02.021Z,10.4
2023-02-21T00:04:01.901Z,10.3
2023-02-21T00:05:01.883Z,10.3
2023-02-21T00:06:01.810Z,10.2
2023-02-21T00:07:01.600Z,10.3
2023-02-21T00:08:01.649Z,10.3
2023-02-21T00:09:01.414Z,10.3
2023-02-21T00:10:01.473Z,10.3
2023-02-21T00:11:01.350Z,10.3
2023-02-21T00:12:01.458Z,10.3
2023-02-21T00:13:02.361Z,10.2
2023-02-21T00:14:02.219Z,10.2
2023-02-21T00:15:02.272Z,10.2
2023-02-21T00:16:02.114Z,10.2
2023-02-21T00:17:01.885Z,10.3
2023-02-21T00:18:01.942Z,10.3
2023-02-21T00:19:01.737Z,10.4
2023-02-21T00:20:01.820Z,10.4
2023-02-21T00:21:01.708Z,10.3
2023-02-21T00:22:01.563Z,10.2
2023-02-21T00:23:01.430Z,10.3
2023-02-21T00:24:01.503Z,10.4
2023-02-21T00:25:01.343Z,10.4
2023-02-21T00:26:01.447Z,10.4
2023-02-21T00:27:01.381Z,10.2
2023-02-21T00:28:01.408Z,10.2
2023-02-21T00:29:01.327Z,10.2
2023-02-21T00:30:02.385Z,10.2
2023-02-21T00:31:01.373Z,10.1
2023-02-21T00:32:01.412Z,10.1
2023-02-21T00:33:01.480Z,10
2023-02-21T00:34:01.590Z,10
2023-02-21T00:35:01.608Z,10.1
2023-02-21T00:36:01.434Z,10
2023-02-21T00:37:01.426Z,9.8
2023-02-21T00:38:01.339Z,9.9
2023-02-21T00:39:02.386Z,9.9
2023-02-21T00:40:02.236Z,9.8
2023-02-21T00:41:02.267Z,9.8
2023-02-21T00:42:02.110Z,9.7
2023-02-21T00:43:02.128Z,9.8
2023-02-21T00:44:01.972Z,9.8
2023-02-21T00:45:01.970Z,9.7
2023-02-21T00:46:02.009Z,9.7
2023-02-21T00:47:01.931Z,9.5
2023-02-21T00:48:01.864Z,9.5
2023-02-21T00:49:01.903Z,9.5
2023-02-21T00:50:01.677Z,9.5
2023-02-21T00:51:01.627Z,9.6
2023-02-21T00:52:02.203Z,9.6
2023-02-21T00:53:02.006Z,9.5
2023-02-21T00:54:01.969Z,9.6
2023-02-21T00:55:02.304Z,9.6
2023-02-21T00:56:02.247Z,9.6
2023-02-21T00:57:02.097Z,9.5
2023-02-21T00:58:01.953Z,9.5
2023-02-21T00:59:01.857Z,9.4
2023-02-21T01:00:01.912Z,9.4
2023-02-21T01:01:01.784Z,9.5
2023-02-21T01:02:01.579Z,9.6
2023-02-21T01:03:01.511Z,9.5
2023-02-21T01:04:01.452Z,9.5
2023-02-21T01:05:01.449Z,9.5
2023-02-21T01:06:02.393Z,9.4
2023-02-21T01:07:02.267Z,9.4
2023-02-21T01:08:02.290Z,9.3
2023-02-21T01:09:02.126Z,9.4
2023-02-21T01:10:02.177Z,9.3
2023-02-21T01:11:01.996Z,9.4
2023-02-21T01:12:01.939Z,9.4
2023-02-21T01:13:02.004Z,9.4
2023-02-21T01:14:01.845Z,9.3
2023-02-21T01:15:01.743Z,9.4
2023-02-21T01:16:01.819Z,9.4
2023-02-21T01:17:11.552Z,9.5
2023-02-21T01:18:01.407Z,9.4
2023-02-21T01:19:01.441Z,9.4
2023-02-21T01:20:02.387Z,9.4
2023-02-21T01:21:02.269Z,9.4
2023-02-21T01:22:02.288Z,9.4
2023-02-21T01:23:02.119Z,9.3
2023-02-21T01:24:02.104Z,9.3
2023-02-21T01:25:01.988Z,9.3
2023-02-21T01:26:01.865Z,9.2
2023-02-21T01:27:01.873Z,9.2
2023-02-21T01:28:01.781Z,9.2
2023-02-21T01:29:01.731Z,9.2
2023-02-21T01:30:01.681Z,9.1
2023-02-21T01:31:01.536Z,9.2
2023-02-21T01:32:01.588Z,9
2023-02-21T01:33:01.586Z,9.2
2023-02-21T01:34:01.382Z,9
2023-02-21T01:35:01.412Z,9
2023-02-21T01:36:02.404Z,9.1
2023-02-21T01:37:02.278Z,8.9
2023-02-21T01:38:02.317Z,9
2023-02-21T01:39:02.111Z,9
2023-02-21T01:40:02.103Z,9.1
2023-02-21T01:41:01.999Z,9
2023-02-21T01:42:01.946Z,8.8
2023-02-21T01:43:01.922Z,8.9
2023-02-21T01:44:01.711Z,8.9
2023-02-21T01:45:01.674Z,9
2023-02-21T01:46:01.684Z,8.8
2023-02-21T01:47:01.480Z,8.7
2023-02-21T01:48:01.527Z,8.7
2023-02-21T01:49:01.357Z,8.6
2023-02-21T01:50:02.342Z,8.6
2023-02-21T01:51:02.246Z,8.7
2023-02-21T01:52:01.512Z,8.6
2023-02-21T01:53:01.349Z,8.5
2023-02-21T01:54:01.430Z,8.6
2023-02-21T01:55:02.375Z,8.6
2023-02-21T01:56:02.175Z,8.5
2023-02-21T01:57:02.228Z,8.5
2023-02-21T01:58:03.747Z,8.6
2023-02-21T01:59:01.446Z,8.6
2023-02-21T02:00:01.459Z,8.4
2023-02-21T02:01:01.360Z,8.5
2023-02-21T02:02:02.209Z,8.6
2023-02-21T02:03:02.215Z,8.6
2023-02-21T02:04:02.128Z,8.5
2023-02-21T02:05:02.124Z,8.5
2023-02-21T02:06:02.012Z,8.5
2023-02-21T02:07:01.964Z,8.5
2023-02-21T02:08:01.970Z,8.5
2023-02-21T02:09:01.813Z,8.4
2023-02-21T02:10:01.743Z,8.3
2023-02-21T02:11:01.749Z,8.4
2023-02-21T02:12:01.581Z,8.3
2023-02-21T02:13:01.592Z,8.5
2023-02-21T02:14:01.387Z,8.4
2023-02-21T02:15:01.460Z,8.5
2023-02-21T02:16:01.404Z,8.4
2023-02-21T02:17:03.401Z,8.5
2023-02-21T02:18:01.506Z,8.3
2023-02-21T02:19:01.348Z,8.3
2023-02-21T02:20:01.475Z,8.3
2023-02-21T02:21:01.347Z,8.3
2023-02-21T02:22:02.363Z,8.3
2023-02-21T02:23:02.252Z,8.4
2023-02-21T02:24:02.302Z,8.4
2023-02-21T02:25:02.165Z,8.3
2023-02-21T02:26:02.217Z,8.3
2023-02-21T02:27:02.055Z,8.2
2023-02-21T02:28:02.067Z,8.3
2023-02-21T02:29:01.870Z,8.4
2023-02-21T02:30:01.807Z,8.3
2023-02-21T02:31:01.926Z,8.2
2023-02-21T02:32:01.969Z,8.2
2023-02-21T02:33:02.136Z,8.3
2023-02-21T02:34:02.106Z,8.3
2023-02-21T02:35:01.992Z,8.3
2023-02-21T02:36:02.000Z,8.2
2023-02-21T02:37:02.034Z,8.2
2023-02-21T02:38:01.827Z,8.2
2023-02-21T02:39:01.798Z,8.2
2023-02-21T02:40:01.776Z,8.3
2023-02-21T02:41:01.581Z,8.1
2023-02-21T02:42:01.574Z,8.2
2023-02-21T02:43:01.395Z,8.2
2023-02-21T02:44:01.393Z,8.3
2023-02-21T02:45:02.397Z,8.2
2023-02-21T02:46:02.314Z,8.2
2023-02-21T02:47:02.036Z,8.2
2023-02-21T02:48:02.009Z,8.1
2023-02-21T02:49:01.880Z,8.2
2023-02-21T02:50:01.816Z,8.3
2023-02-21T02:51:01.799Z,8.2
2023-02-21T02:52:01.592Z,8.1
2023-02-21T02:53:01.593Z,8.1
2023-02-21T02:54:01.417Z,8.2
2023-02-21T02:55:01.449Z,8.2
2023-02-21T02:56:02.336Z,8.2
2023-02-21T02:57:02.183Z,8.2
2023-02-21T02:58:02.229Z,8.2
2023-02-21T02:59:02.091Z,8.3
2023-02-21T03:00:02.113Z,8.2
2023-02-21T03:01:01.912Z,8.2
2023-02-21T03:02:01.820Z,8.2
2023-02-21T03:03:01.858Z,8.2
2023-02-21T03:04:01.720Z,8.2
2023-02-21T03:05:01.788Z,8.2
2023-02-21T03:06:01.635Z,8.3
2023-02-21T03:07:01.652Z,8.3
2023-02-21T03:08:01.445Z,8.3
2023-02-21T03:09:01.513Z,8.2
2023-02-21T03:10:01.379Z,8.2
2023-02-21T03:11:01.447Z,8.3
2023-02-21T03:12:01.328Z,8.2
2023-02-21T03:13:02.453Z,8.3
2023-02-21T03:14:01.307Z,8.4
2023-02-21T03:15:02.406Z,8.2
2023-02-21T03:16:02.266Z,8.2
2023-02-21T03:17:01.400Z,8.2
2023-02-21T03:18:01.432Z,8.3
2023-02-21T03:19:01.420Z,8.2
2023-02-21T03:20:02.367Z,8.1
2023-02-21T03:21:02.219Z,8.2
2023-02-21T03:22:02.268Z,8.1
2023-02-21T03:23:02.107Z,8.2
2023-02-21T03:24:02.124Z,8.3
2023-02-21T03:25:02.011Z,8.3
2023-02-21T03:26:01.964Z,8.2
2023-02-21T03:27:02.010Z,8.1
2023-02-21T03:28:01.861Z,8.2
2023-02-21T03:29:01.828Z,8.2
2023-02-21T03:30:01.844Z,8.2
2023-02-21T03:31:01.748Z,8.3
2023-02-21T03:32:01.647Z,8.3
2023-02-21T03:33:01.654Z,8.2
2023-02-21T03:34:01.465Z,8.2
2023-02-21T03:35:01.804Z,8.2
2023-02-21T03:36:01.529Z,8.2
2023-02-21T03:37:01.537Z,8.2
2023-02-21T03:38:01.371Z,8.2
2023-02-21T03:39:01.372Z,8.3
2023-02-21T03:40:02.315Z,8.2
2023-02-21T03:41:02.234Z,8.2
2023-02-21T03:42:02.254Z,8.1
2023-02-21T03:43:02.074Z,8.2
2023-02-21T03:44:02.024Z,8.1
2023-02-21T03:45:01.979Z,8.2
2023-02-21T03:46:01.908Z,8.2
2023-02-21T03:47:01.697Z,8.2
2023-02-21T03:48:01.737Z,8.2
2023-02-21T03:49:01.528Z,8.3
2023-02-21T03:50:01.522Z,8.3
2023-02-21T03:51:01.369Z,8.3
2023-02-21T03:52:01.446Z,8.3
2023-02-21T03:53:02.407Z,8.2
2023-02-21T03:54:02.225Z,8.2
2023-02-21T03:55:02.260Z,8.2
2023-02-21T03:56:02.099Z,8.3
2023-02-21T03:57:02.135Z,8.2
2023-02-21T03:58:01.959Z,8.2
2023-02-21T03:59:01.989Z,8.3
2023-02-21T04:00:02.012Z,8.2
2023-02-21T04:01:01.846Z,8.1
2023-02-21T04:02:01.850Z,8.1
2023-02-21T04:03:01.883Z,8.2
2023-02-21T04:04:01.701Z,8.2
2023-02-21T04:05:01.652Z,8.2
2023-02-21T04:06:01.522Z,8.2
2023-02-21T04:07:01.469Z,8.2
2023-02-21T04:08:01.364Z,8.2
2023-02-21T04:09:01.445Z,8.1
2023-02-21T04:10:01.340Z,8.2
2023-02-21T04:11:02.385Z,8.1
2023-02-21T04:12:02.233Z,8.3
2023-02-21T04:13:02.287Z,8.1
2023-02-21T04:14:02.123Z,8.1
2023-02-21T04:15:02.172Z,8.2
2023-02-21T04:16:02.020Z,8.3
2023-02-21T04:17:01.902Z,8.2
2023-02-21T04:18:01.887Z,8.1
2023-02-21T04:19:01.709Z,8.2
2023-02-21T04:20:01.684Z,8.2
2023-02-21T04:21:01.575Z,8.1
2023-02-21T04:22:01.526Z,8.2
2023-02-21T04:23:03.720Z,8.2
2023-02-21T04:24:01.693Z,8.3
2023-02-21T04:25:01.633Z,8.2
2023-02-21T04:26:01.533Z,8.1
2023-02-21T04:27:01.462Z,8.2
2023-02-21T04:28:01.338Z,8.1
2023-02-21T04:29:02.400Z,8.2
2023-02-21T04:30:02.234Z,8.1
2023-02-21T04:31:02.277Z,8
2023-02-21T04:32:01.935Z,8.1
2023-02-21T04:33:02.123Z,8.2
2023-02-21T04:34:11.156Z,8.2
2023-02-21T04:35:02.074Z,8.2
2023-02-21T04:36:02.007Z,8.2
2023-02-21T04:37:01.932Z,8.2
2023-02-21T04:38:01.870Z,8.1
2023-02-21T04:39:01.908Z,8
2023-02-21T04:40:01.690Z,8
2023-02-21T04:41:01.590Z,8
2023-02-21T04:42:01.553Z,8
2023-02-21T04:43:01.432Z,8.1
2023-02-21T04:44:01.511Z,8.1
2023-02-21T04:45:01.341Z,8.1
2023-02-21T04:46:01.467Z,8.1
2023-02-21T04:47:02.296Z,8
2023-02-21T04:48:02.108Z,8
2023-02-21T04:49:02.179Z,8.1
2023-02-21T04:50:02.031Z,8.1
2023-02-21T04:51:14.651Z,8.1
2023-02-21T04:52:01.363Z,8.1
2023-02-21T04:53:02.430Z,8.1
2023-02-21T04:54:02.357Z,8.1
2023-02-21T04:55:02.234Z,8.1
2023-02-21T04:56:02.133Z,8.1
2023-02-21T04:57:02.190Z,8.1
2023-02-21T04:58:02.039Z,8
2023-02-21T04:59:02.075Z,8
2023-02-21T05:00:01.907Z,8.1
2023-02-21T05:01:01.816Z,8.1
2023-02-21T05:02:02.803Z,8.1
2023-02-21T05:03:01.795Z,8
2023-02-21T05:04:01.669Z,8
2023-02-21T05:05:01.751Z,8.1
2023-02-21T05:06:01.573Z,8.1
2023-02-21T05:07:01.579Z,8.2
2023-02-21T05:08:01.398Z,8.1
2023-02-21T05:09:01.463Z,8
2023-02-21T05:10:01.342Z,8.1
2023-02-21T05:11:02.357Z,8.1
2023-02-21T05:12:02.175Z,8.2
2023-02-21T05:13:02.237Z,8.2
2023-02-21T05:14:02.084Z,8.1
2023-02-21T05:15:02.078Z,8.1
2023-02-21T05:16:01.964Z,8.1
2023-02-21T05:17:01.834Z,8.1
2023-02-21T05:18:01.819Z,8.1
2023-02-21T05:19:01.646Z,8
2023-02-21T05:20:01.605Z,8.2
2023-02-21T05:21:03.248Z,8.1
2023-02-21T05:22:02.226Z,8.1
2023-02-21T05:23:11.915Z,8.2
2023-02-21T05:24:01.793Z,8.2
2023-02-21T05:25:01.724Z,8.2
2023-02-21T05:26:01.764Z,8.2
2023-02-21T05:27:01.593Z,8.1
2023-02-21T05:28:01.618Z,8.1
2023-02-21T05:29:01.433Z,8
2023-02-21T05:30:01.458Z,8
2023-02-21T05:31:01.559Z,8
2023-02-21T05:32:01.847Z,8
2023-02-21T05:33:01.895Z,8.1
2023-02-21T05:34:01.738Z,8.1
2023-02-21T05:35:01.828Z,8.1
2023-02-21T05:36:01.625Z,8.1
2023-02-21T05:37:01.662Z,8
2023-02-21T05:38:01.491Z,8.1
2023-02-21T05:39:01.529Z,8.1
2023-02-21T05:40:01.357Z,8.1
2023-02-21T05:41:01.437Z,8.1
2023-02-21T05:42:02.400Z,8
2023-02-21T05:43:02.229Z,8.1
2023-02-21T05:44:02.275Z,8
2023-02-21T05:45:02.132Z,8.1
2023-02-21T05:46:02.145Z,8.1
2023-02-21T05:47:01.924Z,8.1
2023-02-21T05:48:01.901Z,8.2
2023-02-21T05:49:01.938Z,8
2023-02-21T05:50:01.755Z,8.1
2023-02-21T05:51:01.668Z,8
2023-02-21T05:52:01.713Z,8.1
2023-02-21T05:53:01.551Z,8.1
2023-02-21T05:54:01.534Z,8.2
2023-02-21T05:55:01.330Z,8.1
2023-02-21T05:56:02.361Z,8
2023-02-21T05:57:02.221Z,8.1
2023-02-21T05:58:02.209Z,8.2
2023-02-21T05:59:02.078Z,8.1
2023-02-21T06:00:02.131Z,8.1
2023-02-21T06:01:01.959Z,8.1
2023-02-21T06:02:01.825Z,8.1
2023-02-21T06:03:04.546Z,8
2023-02-21T06:04:01.940Z,8.1
2023-02-21T06:05:01.910Z,8.1
2023-02-21T06:06:01.915Z,8
2023-02-21T06:07:01.810Z,8
2023-02-21T06:08:01.683Z,8
2023-02-21T06:09:01.653Z,8
2023-02-21T06:10:01.465Z,8.1
2023-02-21T06:11:01.474Z,8
2023-02-21T06:12:01.309Z,8
2023-02-21T06:13:02.349Z,8.1
2023-02-21T06:14:02.183Z,8
2023-02-21T06:15:02.226Z,8
2023-02-21T06:16:02.072Z,8
2023-02-21T06:17:02.166Z,8
2023-02-21T06:18:02.206Z,8.1
2023-02-21T06:19:02.066Z,8.1
2023-02-21T06:20:02.085Z,8
2023-02-21T06:21:01.858Z,8.1
2023-02-21T06:22:01.746Z,8.1
2023-02-21T06:23:01.736Z,8.1
2023-02-21T06:24:01.568Z,8.1
2023-02-21T06:25:01.576Z,8.1
2023-02-21T06:26:01.413Z,8.1
2023-02-21T06:27:01.367Z,8.2
2023-02-21T06:28:01.925Z,8.1
2023-02-21T06:29:01.891Z,8.2
2023-02-21T06:30:02.002Z,8.3
2023-02-21T06:31:01.783Z,8.2
2023-02-21T06:32:01.820Z,8.2
2023-02-21T06:33:01.824Z,8.2
2023-02-21T06:34:01.624Z,8.2
2023-02-21T06:35:01.611Z,8.1
2023-02-21T06:36:01.441Z,8.2
2023-02-21T06:37:01.459Z,8.2
2023-02-21T06:38:02.397Z,8.1
2023-02-21T06:39:02.222Z,8.3
2023-02-21T06:40:02.255Z,8.4
2023-02-21T06:41:03.295Z,8.4
2023-02-21T06:42:02.259Z,8.3
2023-02-21T06:43:02.270Z,8.3
2023-02-21T06:44:02.145Z,8.3
2023-02-21T06:45:02.216Z,8.2
2023-02-21T06:46:02.073Z,8.3
2023-02-21T06:47:02.145Z,8.4
2023-02-21T06:48:02.204Z,8.3
2023-02-21T06:49:02.053Z,8.3
2023-02-21T06:50:02.101Z,8.3
2023-02-21T06:51:01.899Z,8.3
2023-02-21T06:52:01.875Z,8.4
2023-02-21T06:53:01.828Z,8.5
2023-02-21T06:54:01.698Z,8.5
2023-02-21T06:55:01.694Z,8.4
2023-02-21T06:56:01.515Z,8.3
2023-02-21T06:57:01.574Z,8.3
2023-02-21T06:58:01.514Z,8.3
2023-02-21T06:59:01.615Z,8.3
2023-02-21T07:00:01.354Z,8.2
2023-02-21T07:01:02.411Z,8.3
2023-02-21T07:02:01.405Z,8.3
2023-02-21T07:03:01.367Z,8.4
2023-02-21T07:04:02.351Z,8.4
2023-02-21T07:05:02.200Z,8.3
2023-02-21T07:06:02.231Z,8.3
2023-02-21T07:07:02.083Z,8.3
2023-02-21T07:08:02.121Z,8.2
2023-02-21T07:09:01.965Z,8.3
2023-02-21T07:10:01.938Z,8.3
2023-02-21T07:11:01.962Z,8.3
2023-02-21T07:12:01.795Z,8.3
2023-02-21T07:13:01.752Z,8.4
2023-02-21T07:14:01.766Z,8.4
2023-02-21T07:15:01.552Z,8.4
2023-02-21T07:16:01.630Z,8.5
2023-02-21T07:17:01.430Z,8.4
2023-02-21T07:18:01.465Z,8.3
2023-02-21T07:19:01.328Z,8.4
2023-02-21T07:20:02.326Z,8.5
2023-02-21T07:21:02.277Z,8.4
2023-02-21T07:22:02.269Z,8.4
2023-02-21T07:23:02.100Z,8.5
2023-02-21T07:24:02.151Z,8.5
2023-02-21T07:25:01.964Z,8.6
2023-02-21T07:26:01.887Z,8.5
2023-02-21T07:27:01.907Z,8.5
2023-02-21T07:28:01.764Z,8.4
2023-02-21T07:29:01.900Z,8.4
2023-02-21T07:30:01.666Z,8.5
2023-02-21T07:31:01.753Z,8.5
2023-02-21T07:32:01.466Z,8.7
2023-02-21T07:33:01.480Z,8.6
2023-02-21T07:34:01.339Z,8.5
2023-02-21T07:35:02.368Z,8.6
2023-02-21T07:36:02.225Z,8.7
2023-02-21T07:37:02.248Z,8.6
2023-02-21T07:38:02.113Z,8.5
2023-02-21T07:39:02.166Z,8.6
2023-02-21T07:40:02.027Z,8.6
2023-02-21T07:41:02.010Z,8.6
2023-02-21T07:42:01.901Z,8.8
2023-02-21T07:43:01.804Z,8.6
2023-02-21T07:44:01.864Z,8.6
2023-02-21T07:45:01.738Z,8.6
2023-02-21T07:46:01.808Z,8.7
2023-02-21T07:47:01.623Z,8.8
2023-02-21T07:48:01.670Z,8.7
2023-02-21T07:49:01.475Z,8.6
2023-02-21T07:50:01.502Z,8.7
2023-02-21T07:51:01.330Z,8.8
2023-02-21T07:52:02.414Z,8.7
2023-02-21T07:53:02.234Z,8.8
2023-02-21T07:54:02.280Z,8.9
2023-02-21T07:55:02.103Z,8.9
2023-02-21T07:56:02.088Z,9
2023-02-21T07:57:01.931Z,9
2023-02-21T07:58:01.900Z,9
2023-02-21T07:59:01.870Z,9.3
2023-02-21T08:00:01.705Z,9.2
2023-02-21T08:01:01.749Z,9.1
2023-02-21T08:02:01.465Z,9.1
2023-02-21T08:03:01.513Z,9.1
2023-02-21T08:04:02.118Z,9
2023-02-21T08:05:02.330Z,8.9
2023-02-21T08:06:02.350Z,9
2023-02-21T08:07:02.187Z,8.9
2023-02-21T08:08:02.232Z,9
2023-02-21T08:09:02.076Z,9.1
2023-02-21T08:10:02.107Z,9
2023-02-21T08:11:01.851Z,9.3
2023-02-21T08:12:01.976Z,9
2023-02-21T08:13:02.022Z,9.1
2023-02-21T08:14:01.800Z,9.2
2023-02-21T08:15:01.730Z,9
2023-02-21T08:16:01.826Z,9.1
2023-02-21T08:17:01.726Z,9
2023-02-21T08:18:01.766Z,9
2023-02-21T08:19:01.615Z,9.1
2023-02-21T08:20:01.606Z,9.1
2023-02-21T08:21:01.451Z,9.1
2023-02-21T08:22:01.427Z,9.1
2023-02-21T08:23:01.312Z,9.2
2023-02-21T08:24:02.302Z,9.2
2023-02-21T08:25:02.190Z,9
2023-02-21T08:26:02.166Z,9.1
2023-02-21T08:27:01.933Z,9.1
2023-02-21T08:28:01.913Z,9.1
2023-02-21T08:29:01.894Z,9.2
2023-02-21T08:30:01.772Z,9.2
2023-02-21T08:31:01.619Z,9.1
2023-02-21T08:32:01.744Z,9.1
2023-02-21T08:33:01.806Z,9.2
2023-02-21T08:34:01.588Z,9.2
2023-02-21T08:35:01.644Z,9.1
2023-02-21T08:36:01.525Z,9.1
2023-02-21T08:37:01.399Z,9.1
2023-02-21T08:38:02.354Z,9.2
2023-02-21T08:39:02.244Z,9.2
2023-02-21T08:40:02.290Z,9.4
2023-02-21T08:41:02.168Z,9.4
2023-02-21T08:42:02.108Z,9.4
2023-02-21T08:43:01.983Z,9.4
2023-02-21T08:44:01.873Z,9.3
2023-02-21T08:45:01.854Z,9.3
2023-02-21T08:46:01.720Z,9.3
2023-02-21T08:47:01.730Z,9.4
2023-02-21T08:48:01.600Z,9.3
2023-02-21T08:49:01.540Z,9.4
2023-02-21T08:50:01.433Z,9.4
2023-02-21T08:51:01.356Z,9.6
2023-02-21T08:52:02.322Z,9.7
2023-02-21T08:53:02.222Z,9.7
2023-02-21T08:54:02.216Z,9.5
2023-02-21T08:55:02.100Z,9.6
2023-02-21T08:56:02.123Z,9.6
2023-02-21T08:57:01.933Z,9.4
2023-02-21T08:58:01.942Z,9.5
2023-02-21T08:59:01.965Z,9.4
2023-02-21T09:00:01.836Z,9.4
2023-02-21T09:01:01.833Z,9.4
2023-02-21T09:02:01.960Z,9.4
2023-02-21T09:03:01.843Z,9.4
2023-02-21T09:04:01.773Z,9.4
2023-02-21T09:05:01.730Z,9.4
2023-02-21T09:06:01.730Z,9.3
2023-02-21T09:07:01.602Z,9.3
2023-02-21T09:08:01.855Z,9.4
2023-02-21T09:09:01.735Z,9.3
2023-02-21T09:10:01.572Z,9.4
2023-02-21T09:11:01.609Z,9.4
2023-02-21T09:12:01.437Z,9.4
2023-02-21T09:13:01.454Z,9.4
2023-02-21T09:14:01.353Z,9.5
2023-02-21T09:15:02.301Z,9.5
2023-02-21T09:16:02.212Z,9.5
2023-02-21T09:17:02.273Z,9.4
2023-02-21T09:18:02.325Z,9.5
2023-02-21T09:19:02.166Z,9.6
2023-02-21T09:20:02.152Z,9.6
2023-02-21T09:21:02.111Z,9.7
2023-02-21T09:22:02.049Z,9.9
2023-02-21T09:23:01.968Z,9.8
2023-02-21T09:24:01.910Z,9.8
2023-02-21T09:25:01.905Z,9.9
2023-02-21T09:26:01.778Z,10
2023-02-21T09:27:01.746Z,9.8
2023-02-21T09:28:01.744Z,9.8
2023-02-21T09:29:01.585Z,9.8
2023-02-21T09:30:01.549Z,9.9
2023-02-21T09:31:01.381Z,9.9
2023-02-21T09:32:02.334Z,10.1
2023-02-21T09:33:02.288Z,10
2023-02-21T09:34:02.126Z,10
2023-02-21T09:35:02.146Z,9.9
2023-02-21T09:36:01.974Z,9.9
2023-02-21T09:37:01.973Z,10
2023-02-21T09:38:01.827Z,10
2023-02-21T09:39:01.697Z,10
2023-02-21T09:40:01.745Z,10
2023-02-21T09:41:01.616Z,10.1
2023-02-21T09:42:01.629Z,9.9
2023-02-21T09:43:01.444Z,9.8
2023-02-21T09:44:02.278Z,10.1
2023-02-21T09:45:04.391Z,10.1
2023-02-21T09:46:01.497Z,10.1
2023-02-21T09:47:02.178Z,10.4
2023-02-21T09:48:02.216Z,10.5
2023-02-21T09:49:02.021Z,10.5
2023-02-21T09:50:02.048Z,10.4
2023-02-21T09:51:01.924Z,10.3
2023-02-21T09:52:01.887Z,10.2
2023-02-21T09:53:01.905Z,10.1
2023-02-21T09:54:01.812Z,10.2
2023-02-21T09:55:01.736Z,10.2
2023-02-21T09:56:01.795Z,10.2
2023-02-21T09:57:01.583Z,10.2
2023-02-21T09:58:01.594Z,10.1
2023-02-21T09:59:01.434Z,10.2
2023-02-21T10:00:01.424Z,10.1
2023-02-21T10:01:01.338Z,10.2
2023-02-21T10:02:01.369Z,10.2
2023-02-21T10:03:01.447Z,10.2
2023-02-21T10:04:02.352Z,10.1
2023-02-21T10:05:02.264Z,9.9
2023-02-21T10:06:04.322Z,10.1
2023-02-21T10:07:01.353Z,10
2023-02-21T10:08:01.426Z,10.2
2023-02-21T10:09:02.286Z,10.2
2023-02-21T10:10:02.180Z,10.2
2023-02-21T10:11:02.223Z,10.2
2023-02-21T10:12:02.060Z,10.1
2023-02-21T10:13:02.078Z,10.3
2023-02-21T10:14:01.920Z,10.3
2023-02-21T10:15:01.902Z,10.2
2023-02-21T10:16:01.982Z,10.2
2023-02-21T10:17:01.682Z,10.2
2023-02-21T10:18:01.726Z,10.2
2023-02-21T10:19:01.578Z,10.2
2023-02-21T10:20:01.603Z,10.2
2023-02-21T10:21:01.427Z,10.3
2023-02-21T10:22:01.496Z,10.3
2023-02-21T10:23:01.326Z,10.3
2023-02-21T10:24:02.372Z,10.3
2023-02-21T10:25:02.210Z,10.7
2023-02-21T10:26:02.238Z,10.5
2023-02-21T10:27:02.168Z,10.3
2023-02-21T10:28:02.157Z,10.5
2023-02-21T10:29:02.000Z,10.3
2023-02-21T10:30:02.054Z,10.2
2023-02-21T10:31:02.078Z,10.2
2023-02-21T10:32:01.479Z,10.3
2023-02-21T10:33:01.472Z,10.4
2023-02-21T10:34:01.368Z,10.5
2023-02-21T10:35:02.396Z,10.2
2023-02-21T10:36:02.266Z,10.1
2023-02-21T10:37:02.363Z,10.1
2023-02-21T10:38:01.320Z,9.9
2023-02-21T10:39:02.279Z,10.1
2023-02-21T10:40:02.163Z,10
2023-02-21T10:41:02.200Z,10.2
2023-02-21T10:42:02.066Z,10.2
2023-02-21T10:43:02.115Z,10.2
2023-02-21T10:44:01.943Z,10.3
2023-02-21T10:45:01.982Z,10.2
2023-02-21T10:46:01.917Z,10.2
2023-02-21T10:47:01.954Z,10.1
2023-02-21T10:48:01.893Z,10.2
2023-02-21T10:49:01.904Z,10
2023-02-21T10:50:01.886Z,10
2023-02-21T10:51:02.067Z,9.7
2023-02-21T10:52:02.104Z,9.8
2023-02-21T10:53:01.981Z,9.9
2023-02-21T10:54:01.963Z,9.8
2023-02-21T10:55:02.024Z,9.8
2023-02-21T10:56:02.004Z,10
2023-02-21T10:57:01.878Z,9.9
2023-02-21T10:58:02.059Z,10
2023-02-21T10:59:01.836Z,10
2023-02-21T11:00:01.728Z,9.8
2023-02-21T11:01:01.752Z,9.8
2023-02-21T11:02:01.400Z,10
2023-02-21T11:03:01.443Z,10
2023-02-21T11:04:02.383Z,10
2023-02-21T11:05:02.241Z,10.1
2023-02-21T11:06:02.229Z,10.2
2023-02-21T11:07:02.228Z,10.2
2023-02-21T11:08:02.085Z,10.1
2023-02-21T11:09:02.032Z,10.1
2023-02-21T11:10:01.970Z,10.1
2023-02-21T11:11:01.989Z,10
2023-02-21T11:12:01.917Z,10.2
2023-02-21T11:13:01.912Z,10
2023-02-21T11:14:01.896Z,10.2
2023-02-21T11:15:01.814Z,10
2023-02-21T11:16:01.738Z,10
2023-02-21T11:17:01.826Z,10
2023-02-21T11:18:01.786Z,10.1
2023-02-21T11:19:01.697Z,10
2023-02-21T11:20:01.690Z,9.9
2023-02-21T11:21:01.512Z,9.9
2023-02-21T11:22:01.562Z,10
2023-02-21T11:23:01.377Z,10
2023-02-21T11:24:01.473Z,10
2023-02-21T11:25:02.338Z,10
2023-02-21T11:26:02.220Z,9.9
2023-02-21T11:27:02.245Z,10.1
2023-02-21T11:28:02.073Z,10.1
2023-02-21T11:29:02.107Z,10.3
2023-02-21T11:30:01.994Z,10.3
2023-02-21T11:31:01.927Z,10.2
2023-02-21T11:32:02.117Z,10.2
2023-02-21T11:33:02.097Z,10.2
2023-02-21T11:34:02.016Z,10.2
2023-02-21T11:35:02.033Z,10.2
2023-02-21T11:36:02.015Z,10.2
2023-02-21T11:37:01.847Z,10.4
2023-02-21T11:38:01.790Z,10.4
2023-02-21T11:39:01.820Z,10.4
2023-02-21T11:40:01.646Z,10.2
2023-02-21T11:41:01.664Z,10.3
2023-02-21T11:42:01.531Z,10.4
2023-02-21T11:43:01.500Z,10.7
2023-02-21T11:44:01.347Z,10.8
2023-02-21T11:45:01.406Z,10.7
2023-02-21T11:46:02.340Z,10.6
2023-02-21T11:47:02.182Z,11.1
2023-02-21T11:48:02.226Z,11.1
2023-02-21T11:49:02.058Z,10.9
2023-02-21T11:50:02.104Z,11.1
2023-02-21T11:51:01.853Z,11.5
2023-02-21T11:52:01.868Z,11.8
2023-02-21T11:53:01.768Z,11.6
2023-02-21T11:54:01.613Z,11.9
2023-02-21T11:55:01.640Z,11.8
2023-02-21T11:56:01.433Z,12.1
2023-02-21T11:57:01.400Z,12.2
2023-02-21T11:58:02.526Z,12.3
2023-02-21T11:59:02.277Z,12.1
2023-02-21T12:00:02.263Z,11.9
2023-02-21T12:01:02.218Z,12
2023-02-21T12:02:02.135Z,11.8
2023-02-21T12:03:02.111Z,11.7
2023-02-21T12:04:02.000Z,11.5
2023-02-21T12:05:01.924Z,11.5
2023-02-21T12:06:01.915Z,11.3
2023-02-21T12:07:01.864Z,11.2
2023-02-21T12:08:01.805Z,11.1
2023-02-21T12:09:01.817Z,10.9
2023-02-21T12:10:01.695Z,10.9
2023-02-21T12:11:01.733Z,10.8
2023-02-21T12:12:02.452Z,10.9
2023-02-21T12:13:01.376Z,10.8
2023-02-21T12:14:01.394Z,10.7
2023-02-21T12:15:02.461Z,10.8
2023-02-21T12:16:02.264Z,10.9
2023-02-21T12:17:02.200Z,11
2023-02-21T12:18:02.269Z,11.1
2023-02-21T12:19:02.109Z,11
2023-02-21T12:20:02.095Z,11.1
2023-02-21T12:21:01.993Z,11
2023-02-21T12:22:01.928Z,11
2023-02-21T12:23:01.970Z,11
2023-02-21T12:24:02.182Z,11.1
2023-02-21T12:25:02.067Z,11.1
2023-02-21T12:26:02.068Z,11.1
2023-02-21T12:27:01.904Z,11.2
2023-02-21T12:28:01.820Z,11
2023-02-21T12:29:01.816Z,11.1
2023-02-21T12:30:01.620Z,11
2023-02-21T12:31:01.640Z,11.1
2023-02-21T12:32:01.737Z,11.1
2023-02-21T12:33:01.749Z,11.1
2023-02-21T12:34:01.766Z,11.1
2023-02-21T12:35:01.545Z,11
2023-02-21T12:36:01.600Z,11
2023-02-21T12:37:01.402Z,11.1
2023-02-21T12:38:01.387Z,11
2023-02-21T12:39:02.350Z,11
2023-02-21T12:40:02.231Z,10.9
2023-02-21T12:41:02.283Z,10.9
2023-02-21T12:42:02.133Z,10.9
2023-02-21T12:43:02.184Z,10.8
2023-02-21T12:44:02.009Z,10.9
2023-02-21T12:45:01.963Z,10.7
2023-02-21T12:46:02.003Z,10.8
2023-02-21T12:47:01.865Z,10.8
2023-02-21T12:48:01.841Z,10.8
2023-02-21T12:49:01.793Z,10.8
2023-02-21T12:50:01.673Z,10.9
2023-02-21T12:51:01.643Z,10.7
2023-02-21T12:52:01.435Z,10.8
2023-02-21T12:53:01.420Z,10.8
2023-02-21T12:54:02.415Z,10.8
2023-02-21T12:55:02.259Z,10.7
2023-02-21T12:56:02.260Z,10.8
2023-02-21T12:57:02.153Z,10.9
2023-02-21T12:58:02.168Z,11.1
2023-02-21T12:59:02.039Z,11
2023-02-21T13:00:02.113Z,11.2
2023-02-21T13:01:02.010Z,11.1
2023-02-21T13:02:01.860Z,11.2
2023-02-21T13:03:01.888Z,11.3
2023-02-21T13:04:01.838Z,11.1
2023-02-21T13:05:01.745Z,11
2023-02-21T13:06:01.741Z,11.1
2023-02-21T13:07:01.589Z,11
2023-02-21T13:08:01.612Z,11.2
2023-02-21T13:09:01.415Z,11.2
2023-02-21T13:10:01.386Z,11.2
2023-02-21T13:11:02.392Z,11.1
2023-02-21T13:12:02.208Z,11.1
2023-02-21T13:13:02.239Z,11
2023-02-21T13:14:02.097Z,11
2023-02-21T13:15:02.079Z,11.2
2023-02-21T13:16:02.018Z,11.1
2023-02-21T13:17:01.921Z,11
2023-02-21T13:18:01.960Z,11.1
2023-02-21T13:19:01.780Z,11.1
2023-02-21T13:20:01.651Z,11
2023-02-21T13:21:01.721Z,11.1
2023-02-21T13:22:01.595Z,11.2
2023-02-21T13:23:01.530Z,11.3
2023-02-21T13:24:01.347Z,11.4
2023-02-21T13:25:02.352Z,11.8
2023-02-21T13:26:02.237Z,11.9
2023-02-21T13:27:02.270Z,11.8
2023-02-21T13:28:02.113Z,12
2023-02-21T13:29:02.112Z,12.3
2023-02-21T13:30:02.013Z,12.6
2023-02-21T13:31:02.038Z,12.2
2023-02-21T13:32:01.534Z,12.4
2023-02-21T13:33:01.470Z,12.4
2023-02-21T13:34:01.358Z,12.8
2023-02-21T13:35:02.393Z,12.4
2023-02-21T13:36:02.210Z,12.3
2023-02-21T13:37:02.241Z,12.2
2023-02-21T13:38:02.085Z,12
2023-02-21T13:39:02.125Z,11.9
2023-02-21T13:40:01.960Z,11.6
2023-02-21T13:41:02.105Z,11.7
2023-02-21T13:42:02.110Z,11.9
2023-02-21T13:43:01.957Z,11.9